This is the latest recevied weather packets stored in our database for station/object BV5AB-13. If no packets are shown the sender has not sent any weather packets the latest 10 day(s).
| Time | Temp. | Humidity | Pressure | Rain* | Wind** | Luminosity | Snow |
|---|---|---|---|---|---|---|---|
| 1777766824 | 27.22° C | 72% | 1001.3 hPa | 0 mm | - | - | - |
| 1777766224 | 26.67° C | 73% | 1001.3 hPa | 0 mm | - | - | - |
| 1777765623 | 26.67° C | 75% | 1001.1 hPa | 0 mm | - | - | - |
| 1777765024 | 26.11° C | 77% | 1001 hPa | 0 mm | - | - | - |
| 1777764424 | 25.56° C | 77% | 1001 hPa | 0 mm | - | - | - |
| 1777763824 | 25.56° C | 79% | 1000.9 hPa | 0 mm | - | - | - |
| 1777763224 | 25° C | 82% | 1000.7 hPa | 0 mm | - | - | - |
| 1777762623 | 24.44° C | 83% | 1000.5 hPa | 0 mm | - | - | - |
| 1777762024 | 24.44° C | 85% | 1000.5 hPa | 0 mm | - | - | - |
| 1777761423 | 23.89° C | 86% | 1000.4 hPa | 0 mm | - | - | - |
| 1777760823 | 23.89° C | 86% | 1000.3 hPa | 0 mm | - | - | - |
| 1777760224 | 23.89° C | 86% | 1000.3 hPa | 0 mm | - | - | - |
| 1777759625 | 23.89° C | 86% | 1000.3 hPa | 0 mm | - | - | - |
| 1777759024 | 23.89° C | 85% | 1000.3 hPa | 0 mm | - | - | - |
| 1777758425 | 23.89° C | 86% | 1000.2 hPa | 0 mm | - | - | - |
| 1777757824 | 23.89° C | 86% | 1000.1 hPa | 0 mm | - | - | - |
| 1777757224 | 24.44° C | 84% | 1000 hPa | 0 mm | - | - | - |
| 1777756623 | 24.44° C | 84% | 1000 hPa | 0 mm | - | - | - |
| 1777756024 | 23.89° C | 85% | 999.9 hPa | 0 mm | - | - | - |
| 1777755424 | 23.89° C | 85% | 999.9 hPa | 0 mm | - | - | - |
| 1777754824 | 24.44° C | 84% | 1000 hPa | 0 mm | - | - | - |
| 1777754224 | 23.89° C | 85% | 1000.2 hPa | 0 mm | - | - | - |
| 1777753623 | 23.89° C | 85% | 1000.1 hPa | 0 mm | - | - | - |
| 1777753024 | 23.89° C | 85% | 1000.1 hPa | 0 mm | - | - | - |
| 1777752423 | 23.89° C | 85% | 1000.1 hPa | 0 mm | - | - | - |
* Rain latest hour (hover to see other rain measurements)
** Current wind speed in m/s (hover to see current wind gust speed)